Time;durP1;ratioP1;P1;durP2;ratioP2;P2;SDS_P1;SDS_P2;PMS_P1;PMS_P2;Temp;Humidity;BMP_temperature;BMP_pressure;BME280_temperature;BME280_humidity;BME280_pressure;Samples;Min_cycle;Max_cycle;Signal;HPM_P1;HPM_P2
2022/03/30 00:01:01;;;;;;;31.35;11.10;;;4.60;99.90;;;;;;5068601;28;20043;-66
2022/03/30 00:03:27;;;;;;;34.85;12.35;;;4.70;99.90;;;;;;5067041;28;20040;-66
2022/03/30 00:05:53;;;;;;;28.50;11.32;;;4.60;99.90;;;;;;5065551;28;20048;-66
2022/03/30 00:08:20;;;;;;;29.23;11.93;;;4.60;99.90;;;;;;5067492;28;20036;-66
2022/03/30 00:10:45;;;;;;;28.02;11.57;;;4.60;99.90;;;;;;5066448;28;20135;-66
2022/03/30 00:13:11;;;;;;;22.80;10.75;;;4.60;99.90;;;;;;5082512;28;20123;-66
2022/03/30 00:15:37;;;;;;;33.55;11.60;;;4.60;99.90;;;;;;5066314;28;20107;-66
2022/03/30 00:18:03;;;;;;;23.58;11.18;;;4.60;99.90;;;;;;5066806;28;20415;-66
2022/03/30 00:20:31;;;;;;;38.08;12.13;;;4.50;99.90;;;;;;5065174;28;20045;-66
2022/03/30 00:22:57;;;;;;;36.22;11.20;;;4.50;99.90;;;;;;5064622;28;20044;-66
2022/03/30 00:25:23;;;;;;;35.22;11.20;;;4.50;99.90;;;;;;5065273;28;20048;-66
2022/03/30 00:27:49;;;;;;;28.73;10.90;;;4.50;99.90;;;;;;5066190;28;20047;-66
2022/03/30 00:30:17;;;;;;;36.33;11.90;;;4.50;99.90;;;;;;5068131;28;20471;-66
2022/03/30 00:32:44;;;;;;;26.20;10.20;;;4.50;99.90;;;;;;5065077;28;20043;-66
2022/03/30 00:35:10;;;;;;;28.17;11.18;;;4.60;99.90;;;;;;5065763;28;20036;-66
2022/03/30 00:37:37;;;;;;;23.77;9.93;;;4.50;99.90;;;;;;5065845;28;20588;-66
2022/03/30 00:40:08;;;;;;;29.98;10.68;;;4.60;99.90;;;;;;5075113;28;20044;-66
2022/03/30 00:42:35;;;;;;;27.90;10.32;;;4.60;99.90;;;;;;5084710;28;20101;-66
2022/03/30 00:45:12;;;;;;;32.20;10.73;;;4.60;99.90;;;;;;5084635;28;20052;-67
2022/03/30 00:47:39;;;;;;;33.53;10.05;;;4.60;99.90;;;;;;5085234;28;20064;-67
2022/03/30 00:50:07;;;;;;;28.33;10.48;;;4.60;99.90;;;;;;5079204;28;20037;-67
2022/03/30 00:52:34;;;;;;;28.33;11.27;;;4.70;99.90;;;;;;5065968;28;20054;-66
2022/03/30 00:55:00;;;;;;;23.73;10.40;;;4.70;99.90;;;;;;5066558;28;20037;-66
2022/03/30 00:57:28;;;;;;;30.00;9.82;;;4.70;99.90;;;;;;5064419;28;20139;-66
2022/03/30 00:59:54;;;;;;;35.53;12.02;;;4.70;99.90;;;;;;5065047;28;20041;-67
2022/03/30 01:02:20;;;;;;;29.25;10.50;;;4.70;99.90;;;;;;5066623;28;20199;-66
2022/03/30 01:04:47;;;;;;;35.45;10.82;;;4.80;99.90;;;;;;5064695;28;20471;-66
2022/03/30 01:07:13;;;;;;;24.42;9.77;;;4.80;99.90;;;;;;5066677;28;20072;-66
2022/03/30 01:09:39;;;;;;;32.08;10.25;;;4.80;99.90;;;;;;5066155;28;20051;-66
2022/03/30 01:12:08;;;;;;;30.90;9.65;;;4.90;99.90;;;;;;5048578;28;20044;-66
2022/03/30 01:14:39;;;;;;;26.95;10.48;;;4.90;99.90;;;;;;5065398;28;20047;-66
2022/03/30 01:17:06;;;;;;;29.58;10.57;;;4.90;99.90;;;;;;5065195;28;20049;-66
2022/03/30 01:19:34;;;;;;;29.60;10.68;;;4.90;99.90;;;;;;5065140;28;20094;-66
2022/03/30 01:22:00;;;;;;;29.85;11.50;;;5.00;99.90;;;;;;5066626;28;20052;-66
2022/03/30 01:24:27;;;;;;;32.60;11.65;;;5.00;99.90;;;;;;5065030;28;20037;-66
2022/03/30 01:26:53;;;;;;;27.33;11.48;;;5.00;99.90;;;;;;5083663;28;20128;-66
2022/03/30 01:34:49;;;;;;;30.95;11.60;;;5.10;99.90;;;;;;5068505;28;20132;-66
2022/03/30 01:37:15;;;;;;;31.23;12.15;;;5.10;99.90;;;;;;5082641;28;20123;-66
2022/03/30 01:39:41;;;;;;;34.22;11.70;;;5.20;99.90;;;;;;5089721;28;20048;-67
2022/03/30 01:42:07;;;;;;;36.88;12.45;;;5.20;99.90;;;;;;5089353;28;20390;-66
2022/03/30 01:44:34;;;;;;;28.38;11.82;;;5.20;99.90;;;;;;5089824;28;20048;-67
2022/03/30 01:47:00;;;;;;;25.73;12.23;;;5.20;99.90;;;;;;5086918;28;20166;-67
2022/03/30 01:49:26;;;;;;;31.38;11.43;;;5.30;99.90;;;;;;5088863;28;20044;-66
2022/03/30 01:51:54;;;;;;;40.03;12.75;;;5.30;99.90;;;;;;5089359;28;20213;-66
2022/03/30 01:54:22;;;;;;;31.02;11.98;;;5.20;99.90;;;;;;5087120;28;20223;-67
2022/03/30 01:56:49;;;;;;;24.55;12.02;;;5.30;99.90;;;;;;5086422;28;20214;-66
2022/03/30 01:59:16;;;;;;;37.13;12.30;;;5.20;99.90;;;;;;5088544;28;20041;-66
2022/03/30 02:01:42;;;;;;;31.17;12.50;;;5.30;99.90;;;;;;5086695;28;20398;-67
2022/03/30 02:04:09;;;;;;;42.30;12.85;;;5.30;99.90;;;;;;5088920;28;20041;-66
2022/03/30 02:06:36;;;;;;;33.42;12.13;;;5.30;99.90;;;;;;5047711;28;20059;-67
2022/03/30 02:09:03;;;;;;;29.77;13.88;;;5.30;99.90;;;;;;5082685;28;20049;-67
2022/03/30 02:11:29;;;;;;;34.70;12.20;;;5.30;99.90;;;;;;5048595;28;20048;-66
2022/03/30 02:13:56;;;;;;;33.55;13.73;;;5.30;99.90;;;;;;5050030;28;20037;-66
2022/03/30 02:16:22;;;;;;;35.80;13.27;;;5.30;99.90;;;;;;5048529;28;20045;-67
2022/03/30 02:18:48;;;;;;;31.88;13.88;;;5.30;99.90;;;;;;5047204;28;20055;-67
2022/03/30 02:21:15;;;;;;;34.90;12.55;;;5.40;99.90;;;;;;5069761;28;20029;-67
2022/03/30 02:23:42;;;;;;;27.98;10.60;;;5.40;99.90;;;;;;5068864;28;20083;-67
2022/03/30 02:26:07;;;;;;;25.80;10.02;;;5.40;99.90;;;;;;5068932;28;20459;-67
2022/03/30 02:28:33;;;;;;;30.23;11.13;;;5.40;99.90;;;;;;5082164;28;20127;-66
2022/03/30 02:31:00;;;;;;;28.92;11.23;;;5.40;99.90;;;;;;5087242;28;20091;-66
2022/03/30 02:33:26;;;;;;;35.47;10.65;;;5.40;99.90;;;;;;5068211;28;20041;-67
2022/03/30 02:35:53;;;;;;;20.13;9.45;;;5.50;99.90;;;;;;5068933;28;20546;-67
2022/03/30 02:38:19;;;;;;;33.67;13.32;;;5.50;99.90;;;;;;5099255;28;20326;-66
2022/03/30 02:40:45;;;;;;;34.42;11.68;;;5.50;99.90;;;;;;5067395;28;20483;-66
2022/03/30 02:43:14;;;;;;;29.60;11.80;;;5.50;99.90;;;;;;5101183;28;20083;-66
2022/03/30 02:45:39;;;;;;;42.50;16.30;;;5.50;99.90;;;;;;5069168;28;20045;-66
2022/03/30 02:48:22;;;;;;;35.80;15.38;;;5.50;99.90;;;;;;5067522;28;20560;-67
2022/03/30 02:50:54;;;;;;;13.10;5.20;;;5.60;99.90;;;;;;5066137;28;20052;-66
2022/03/30 02:53:20;;;;;;;10.65;5.05;;;5.60;99.90;;;;;;5068723;28;20076;-67
2022/03/30 02:55:47;;;;;;;10.23;4.82;;;5.60;99.90;;;;;;5067832;28;20043;-67
2022/03/30 02:58:13;;;;;;;9.77;4.55;;;5.60;99.90;;;;;;5068852;28;20033;-67
2022/03/30 03:00:40;;;;;;;7.07;4.45;;;5.60;99.90;;;;;;5068200;28;20426;-67
2022/03/30 03:03:07;;;;;;;10.95;6.18;;;5.50;99.90;;;;;;5069023;28;20029;-67
2022/03/30 03:05:34;;;;;;;9.02;5.45;;;5.50;99.90;;;;;;5067399;28;20048;-66
2022/03/30 03:08:01;;;;;;;11.70;5.35;;;5.50;99.90;;;;;;5067419;28;20109;-66
2022/03/30 03:10:27;;;;;;;8.70;4.43;;;5.50;99.90;;;;;;5068841;28;20045;-66
2022/03/30 03:12:54;;;;;;;10.40;3.95;;;5.40;99.90;;;;;;5067345;28;20066;-67
2022/03/30 03:15:20;;;;;;;7.30;4.25;;;5.30;99.90;;;;;;5086951;28;20038;-66
2022/03/30 03:17:45;;;;;;;9.93;3.72;;;5.30;99.90;;;;;;5087638;28;20136;-67
2022/03/30 03:20:12;;;;;;;4.20;2.38;;;5.30;99.90;;;;;;5088555;28;20126;-67
2022/03/30 03:22:38;;;;;;;9.80;3.47;;;5.20;99.90;;;;;;5086381;28;20048;-67
2022/03/30 03:25:04;;;;;;;7.95;3.90;;;5.20;99.90;;;;;;5072961;28;20060;-66
2022/03/30 03:27:30;;;;;;;3.92;2.97;;;5.20;99.90;;;;;;5068942;28;20049;-67
2022/03/30 03:29:56;;;;;;;8.10;2.78;;;5.20;99.90;;;;;;5065548;28;20584;-67
2022/03/30 03:32:22;;;;;;;10.30;3.67;;;5.20;99.90;;;;;;5067035;28;20048;-66
2022/03/30 03:34:48;;;;;;;7.78;3.40;;;5.20;99.90;;;;;;5066540;28;20083;-66
2022/03/30 03:37:15;;;;;;;13.18;3.35;;;5.20;99.90;;;;;;5067987;28;20049;-67
2022/03/30 03:39:41;;;;;;;10.43;3.10;;;5.10;99.90;;;;;;5067063;28;20387;-67
2022/03/30 03:42:07;;;;;;;7.45;2.70;;;5.10;99.90;;;;;;5075492;28;20045;-67
2022/03/30 03:44:33;;;;;;;5.63;2.55;;;5.10;99.90;;;;;;5088290;28;20052;-67
2022/03/30 03:46:59;;;;;;;5.70;3.55;;;5.10;99.90;;;;;;5086373;28;20104;-67
2022/03/30 03:49:25;;;;;;;5.88;3.20;;;5.10;99.90;;;;;;5086099;28;20044;-67
2022/03/30 03:51:50;;;;;;;5.25;2.22;;;5.00;99.90;;;;;;5083994;28;20076;-66
2022/03/30 03:54:16;;;;;;;5.18;2.38;;;5.00;99.90;;;;;;5069467;28;20450;-67
2022/03/30 03:56:43;;;;;;;4.93;2.28;;;5.00;99.90;;;;;;5086699;28;20059;-67
2022/03/30 03:59:10;;;;;;;3.30;2.10;;;5.00;99.90;;;;;;5084797;28;20048;-67
2022/03/30 04:01:37;;;;;;;7.50;2.40;;;5.00;99.90;;;;;;5078839;28;20360;-66
2022/03/30 04:04:03;;;;;;;4.03;2.13;;;4.90;99.90;;;;;;5066707;28;20391;-66
2022/03/30 04:06:29;;;;;;;6.25;1.65;;;4.90;99.90;;;;;;5066079;28;20132;-67
2022/03/30 04:08:55;;;;;;;5.63;1.55;;;4.90;99.90;;;;;;5065635;28;20487;-66
2022/03/30 04:11:21;;;;;;;1.73;1.25;;;4.80;99.90;;;;;;5067418;28;20131;-67
2022/03/30 04:13:47;;;;;;;8.18;1.30;;;4.80;99.90;;;;;;5081586;28;20047;-67
2022/03/30 04:16:16;;;;;;;0.57;0.57;;;4.80;99.90;;;;;;5065737;28;20366;-67
2022/03/30 04:18:42;;;;;;;0.55;0.55;;;4.70;99.90;;;;;;5066794;28;20036;-66
2022/03/30 04:21:08;;;;;;;2.63;0.60;;;4.70;99.90;;;;;;5067504;28;20055;-66
2022/03/30 04:23:34;;;;;;;0.57;0.57;;;4.70;99.90;;;;;;5066941;28;20060;-67
2022/03/30 04:25:59;;;;;;;0.50;0.50;;;4.70;99.90;;;;;;5098389;28;20041;-66
2022/03/30 04:28:25;;;;;;;1.50;0.60;;;4.70;99.90;;;;;;5065664;28;20040;-67
2022/03/30 04:30:51;;;;;;;1.02;0.60;;;4.80;99.90;;;;;;5068641;28;20040;-67
2022/03/30 04:33:17;;;;;;;0.60;0.40;;;4.70;99.90;;;;;;5099562;28;20052;-66
2022/03/30 04:35:42;;;;;;;0.73;0.40;;;4.70;99.90;;;;;;5066022;28;20032;-66
2022/03/30 04:38:08;;;;;;;0.43;0.30;;;4.60;99.90;;;;;;5066478;28;20611;-67
2022/03/30 04:40:34;;;;;;;0.40;0.40;;;4.60;99.90;;;;;;5065828;28;20076;-67
2022/03/30 04:43:00;;;;;;;0.35;0.30;;;4.60;99.90;;;;;;5064822;28;20064;-67
2022/03/30 04:45:26;;;;;;;1.05;0.45;;;4.60;99.90;;;;;;5067396;28;20571;-67
2022/03/30 04:47:53;;;;;;;2.45;0.50;;;4.60;99.90;;;;;;5063528;28;20080;-67
2022/03/30 04:50:21;;;;;;;0.68;0.45;;;4.60;99.90;;;;;;5099522;28;20475;-67
2022/03/30 04:52:47;;;;;;;0.60;0.50;;;4.60;99.90;;;;;;5078457;28;20036;-67
2022/03/30 04:55:13;;;;;;;1.17;0.40;;;4.60;99.90;;;;;;5076709;28;20047;-67
2022/03/30 04:57:40;;;;;;;1.83;0.43;;;4.60;99.90;;;;;;5064921;28;20044;-66
2022/03/30 05:00:11;;;;;;;0.85;0.40;;;4.60;99.90;;;;;;5063493;28;20090;-67
2022/03/30 05:02:38;;;;;;;0.20;0.20;;;4.60;99.90;;;;;;5067421;28;20087;-67
2022/03/30 05:05:05;;;;;;;0.40;0.40;;;4.60;99.90;;;;;;5065288;28;20145;-67
2022/03/30 05:07:31;;;;;;;0.30;0.30;;;4.60;99.90;;;;;;5065267;28;20429;-67
2022/03/30 05:09:57;;;;;;;0.25;0.20;;;4.60;99.90;;;;;;5064984;28;20040;-67
2022/03/30 05:12:25;;;;;;;0.93;0.50;;;4.60;99.90;;;;;;5069198;28;20044;-67
2022/03/30 05:14:51;;;;;;;2.88;0.40;;;4.60;99.90;;;;;;5084930;28;20479;-67
2022/03/30 05:17:17;;;;;;;3.53;0.60;;;4.60;99.90;;;;;;5085974;28;20082;-67
2022/03/30 05:19:44;;;;;;;2.45;0.30;;;4.60;99.90;;;;;;5085310;28;20050;-67
2022/03/30 05:22:13;;;;;;;0.88;0.28;;;4.60;99.90;;;;;;5085129;28;20089;-67
2022/03/30 05:24:38;;;;;;;1.13;0.30;;;4.60;99.90;;;;;;5049957;28;20044;-67
2022/03/30 05:27:04;;;;;;;0.43;0.43;;;4.60;99.90;;;;;;5065038;28;20059;-67
2022/03/30 05:29:31;;;;;;;0.88;0.47;;;4.60;99.90;;;;;;5048430;28;20478;-67
2022/03/30 05:31:57;;;;;;;1.67;0.55;;;4.50;99.90;;;;;;5074501;28;20048;-66
2022/03/30 05:34:24;;;;;;;1.35;0.50;;;4.50;99.90;;;;;;5066111;28;20048;-66
2022/03/30 05:36:50;;;;;;;1.80;0.30;;;4.50;99.90;;;;;;5064428;28;20094;-67
2022/03/30 05:39:16;;;;;;;1.30;0.47;;;4.50;99.90;;;;;;5070038;28;20128;-67
2022/03/30 05:41:42;;;;;;;2.53;0.60;;;4.50;99.90;;;;;;5048081;28;20048;-67
2022/03/30 05:44:09;;;;;;;0.60;0.60;;;4.50;99.90;;;;;;5064662;28;20044;-67
2022/03/30 05:46:36;;;;;;;2.05;0.40;;;4.50;99.90;;;;;;5064818;28;20056;-67
2022/03/30 05:49:06;;;;;;;2.65;0.47;;;4.50;99.90;;;;;;5064909;28;20051;-67
2022/03/30 05:51:32;;;;;;;1.02;0.38;;;4.50;99.90;;;;;;5065749;28;20407;-67
2022/03/30 05:53:58;;;;;;;2.38;0.40;;;4.50;99.90;;;;;;5065124;28;20506;-66
2022/03/30 05:59:09;;;;;;;1.45;0.57;;;4.60;99.90;;;;;;5065860;28;20096;-66
2022/03/30 06:01:35;;;;;;;6.20;0.75;;;4.60;99.90;;;;;;5064972;28;20052;-66
2022/03/30 06:04:02;;;;;;;3.33;0.95;;;4.60;99.90;;;;;;5065621;28;20053;-66
2022/03/30 06:06:27;;;;;;;8.35;1.05;;;4.60;99.90;;;;;;5064840;28;20055;-67
2022/03/30 06:08:53;;;;;;;3.60;0.73;;;4.50;99.90;;;;;;5065073;28;20041;-66
2022/03/30 06:11:19;;;;;;;7.00;0.70;;;4.50;99.90;;;;;;5098655;28;20047;-67
2022/03/30 06:13:45;;;;;;;2.72;0.60;;;4.50;99.90;;;;;;5068903;28;20066;-66
2022/03/30 06:16:12;;;;;;;1.40;0.90;;;4.50;99.90;;;;;;5068153;28;20113;-67
2022/03/30 06:18:39;;;;;;;8.57;1.17;;;4.60;99.90;;;;;;5104270;28;20059;-67
2022/03/30 06:21:05;;;;;;;2.97;0.60;;;4.50;99.90;;;;;;5087344;28;20047;-66
2022/03/30 06:23:31;;;;;;;7.45;1.05;;;4.60;99.90;;;;;;5067179;28;20056;-66
2022/03/30 06:25:56;;;;;;;6.22;1.58;;;4.60;99.90;;;;;;5083180;28;20051;-67
2022/03/30 06:28:26;;;;;;;10.80;1.08;;;4.70;99.90;;;;;;5087044;28;20122;-66
2022/03/30 06:30:52;;;;;;;5.13;0.77;;;4.70;99.90;;;;;;5083621;28;20032;-67
2022/03/30 06:33:17;;;;;;;6.20;1.33;;;4.70;99.90;;;;;;5081201;28;20040;-67
2022/03/30 06:35:43;;;;;;;2.67;1.10;;;4.70;99.90;;;;;;5083254;28;20033;-67
2022/03/30 06:38:10;;;;;;;6.18;1.02;;;4.70;99.90;;;;;;5082506;28;20483;-67
2022/03/30 06:40:36;;;;;;;7.85;1.48;;;4.80;99.90;;;;;;5088158;28;20120;-66
2022/03/30 06:43:01;;;;;;;6.97;0.90;;;4.80;99.90;;;;;;5079907;28;20127;-66
2022/03/30 06:45:27;;;;;;;5.65;0.85;;;4.90;99.90;;;;;;5068344;28;20036;-66
2022/03/30 06:47:53;;;;;;;6.65;1.30;;;4.90;99.90;;;;;;5068120;28;20106;-67
2022/03/30 06:50:19;;;;;;;3.00;1.00;;;5.00;99.90;;;;;;5068934;28;20101;-67
2022/03/30 06:52:46;;;;;;;4.35;0.82;;;5.00;99.90;;;;;;5068169;28;20044;-67
2022/03/30 06:55:14;;;;;;;7.97;1.20;;;5.10;99.90;;;;;;5068367;28;20532;-67
2022/03/30 06:57:43;;;;;;;5.18;1.08;;;5.10;99.90;;;;;;5066543;28;20036;-67
2022/03/30 07:00:12;;;;;;;2.53;0.90;;;5.10;99.90;;;;;;5069567;28;20040;-67
2022/03/30 07:02:38;;;;;;;4.72;0.95;;;5.10;99.90;;;;;;5070436;28;20052;-66
2022/03/30 07:05:04;;;;;;;7.38;1.20;;;5.10;99.90;;;;;;5067933;28;20628;-67
2022/03/30 07:10:15;;;;;;;3.90;1.00;;;5.30;99.90;;;;;;5069000;28;20051;-66
2022/03/30 07:12:52;;;;;;;5.40;0.80;;;5.30;99.90;;;;;;5089287;28;20052;-66
2022/03/30 07:15:19;;;;;;;4.82;1.23;;;5.40;99.90;;;;;;5084890;28;20154;-66
2022/03/30 07:17:50;;;;;;;9.20;1.02;;;5.50;99.90;;;;;;5078159;28;20553;-67
2022/03/30 07:20:17;;;;;;;8.40;1.10;;;5.50;99.90;;;;;;5084769;28;20331;-66
2022/03/30 07:22:43;;;;;;;10.50;1.67;;;5.50;99.90;;;;;;5081557;28;20040;-66
2022/03/30 07:25:10;;;;;;;6.07;1.02;;;5.60;99.90;;;;;;5068710;28;20517;-66
2022/03/30 07:27:45;;;;;;;5.22;1.13;;;5.70;99.90;;;;;;5081519;28;20048;-66
2022/03/30 07:30:12;;;;;;;6.63;1.23;;;5.80;99.90;;;;;;5086475;28;20104;-66
2022/03/30 07:32:39;;;;;;;7.28;1.15;;;5.80;99.90;;;;;;5080943;28;20036;-66
2022/03/30 07:35:07;;;;;;;6.30;0.70;;;5.90;99.90;;;;;;5087182;28;20040;-67
2022/03/30 07:37:33;;;;;;;5.65;0.95;;;5.90;99.90;;;;;;5086722;28;20048;-66
2022/03/30 07:39:59;;;;;;;3.50;0.90;;;5.90;99.90;;;;;;5087102;28;20048;-66
2022/03/30 07:42:26;;;;;;;6.65;1.27;;;5.90;99.90;;;;;;5088097;28;20091;-67
2022/03/30 07:44:52;;;;;;;4.10;0.90;;;6.00;99.90;;;;;;5067992;28;20413;-66
2022/03/30 07:47:18;;;;;;;2.75;1.23;;;6.00;99.90;;;;;;5076829;28;20039;-66
2022/03/30 07:49:44;;;;;;;5.03;1.00;;;6.20;99.90;;;;;;5083633;28;20062;-66
2022/03/30 07:52:10;;;;;;;5.78;1.00;;;6.30;99.90;;;;;;5085569;28;20048;-66
2022/03/30 07:54:36;;;;;;;5.55;1.17;;;6.40;99.90;;;;;;5086631;28;20112;-66
2022/03/30 07:57:02;;;;;;;5.72;0.95;;;6.30;99.90;;;;;;5074675;28;20040;-66
2022/03/30 07:59:27;;;;;;;3.38;0.80;;;6.30;99.90;;;;;;5077428;28;20040;-66
2022/03/30 08:01:54;;;;;;;4.43;0.93;;;6.40;99.90;;;;;;5074783;28;20086;-67
2022/03/30 08:04:20;;;;;;;4.68;1.27;;;6.50;99.90;;;;;;5052782;28;20059;-66
2022/03/30 08:06:47;;;;;;;6.63;1.48;;;6.60;99.90;;;;;;5065996;28;20048;-67
2022/03/30 08:09:12;;;;;;;6.00;0.88;;;6.60;99.90;;;;;;5082626;28;20075;-66
2022/03/30 08:11:38;;;;;;;6.95;1.10;;;6.60;99.90;;;;;;5086792;28;20490;-67
2022/03/30 08:14:04;;;;;;;3.00;1.00;;;6.40;99.90;;;;;;5081315;28;20522;-66
2022/03/30 08:16:32;;;;;;;9.35;1.40;;;6.40;99.90;;;;;;5084796;28;20040;-67
2022/03/30 08:18:59;;;;;;;10.80;1.13;;;6.30;99.90;;;;;;5067718;28;20048;-66
2022/03/30 08:24:09;;;;;;;2.42;0.77;;;6.50;99.90;;;;;;5074205;28;20047;-66
2022/03/30 08:26:34;;;;;;;2.78;0.63;;;6.40;99.90;;;;;;5086464;28;20044;-66
2022/03/30 08:29:00;;;;;;;2.28;0.60;;;6.50;99.90;;;;;;5070253;28;20064;-66
2022/03/30 08:31:26;;;;;;;4.75;0.80;;;6.50;99.90;;;;;;5066070;28;20048;-66
2022/03/30 08:33:52;;;;;;;4.07;0.73;;;6.50;99.90;;;;;;5098360;28;20628;-66
2022/03/30 08:36:19;;;;;;;2.38;0.75;;;6.50;99.90;;;;;;5064069;28;20091;-66
2022/03/30 08:38:45;;;;;;;3.33;1.00;;;6.60;99.90;;;;;;5078054;28;20088;-67
2022/03/30 08:41:11;;;;;;;5.43;0.90;;;6.80;99.90;;;;;;5080561;28;20098;-66
2022/03/30 08:43:39;;;;;;;6.18;0.80;;;6.90;99.90;;;;;;5085721;28;20044;-66
2022/03/30 08:46:05;;;;;;;5.68;0.80;;;6.80;99.90;;;;;;5056503;28;20040;-66
2022/03/30 08:48:30;;;;;;;4.28;1.13;;;6.60;99.90;;;;;;5066227;28;20044;-67
2022/03/30 08:50:58;;;;;;;3.40;0.85;;;6.40;99.90;;;;;;5056977;28;20041;-66
2022/03/30 08:53:26;;;;;;;8.57;1.20;;;6.40;99.90;;;;;;5064839;28;20049;-67
2022/03/30 08:55:52;;;;;;;1.70;0.40;;;6.50;99.90;;;;;;5065302;28;20049;-66
2022/03/30 08:58:18;;;;;;;1.80;0.80;;;6.60;99.90;;;;;;5065286;28;20437;-66
2022/03/30 09:00:44;;;;;;;6.47;1.00;;;6.70;99.90;;;;;;5076427;28;20047;-67
2022/03/30 09:03:15;;;;;;;3.70;0.60;;;6.70;99.90;;;;;;5077548;28;20036;-67
2022/03/30 09:05:40;;;;;;;6.43;0.73;;;6.70;99.90;;;;;;5083011;28;20516;-67
2022/03/30 09:08:07;;;;;;;5.65;0.90;;;6.80;99.90;;;;;;5084603;28;20036;-67
2022/03/30 09:10:35;;;;;;;5.10;0.90;;;6.70;99.90;;;;;;5053413;28;20413;-66
2022/03/30 09:13:02;;;;;;;3.55;0.75;;;6.70;99.90;;;;;;5064942;28;20040;-66
2022/03/30 09:15:28;;;;;;;4.28;0.82;;;6.70;99.90;;;;;;5065158;28;20036;-66
2022/03/30 09:17:59;;;;;;;3.08;1.05;;;6.90;99.90;;;;;;5066302;28;20041;-66
2022/03/30 09:20:25;;;;;;;3.00;0.80;;;6.90;99.90;;;;;;5064569;28;20053;-67
2022/03/30 09:22:54;;;;;;;5.25;0.90;;;7.00;99.90;;;;;;5066616;28;20045;-66
2022/03/30 09:25:24;;;;;;;3.75;0.80;;;7.00;99.90;;;;;;5065121;28;20045;-66
2022/03/30 09:27:53;;;;;;;4.73;0.80;;;7.00;99.90;;;;;;5064518;28;20049;-67
2022/03/30 09:30:19;;;;;;;6.43;0.95;;;7.10;99.90;;;;;;5064889;28;20046;-67
2022/03/30 09:32:46;;;;;;;3.70;0.85;;;7.20;99.90;;;;;;5063373;28;20512;-67
2022/03/30 09:35:28;;;;;;;2.15;0.80;;;7.20;99.90;;;;;;5065900;28;20044;-66
2022/03/30 09:38:08;;;;;;;3.17;0.73;;;7.30;99.90;;;;;;5064816;28;20048;-66
2022/03/30 09:40:39;;;;;;;6.82;1.20;;;7.40;99.90;;;;;;5065840;28;20096;-66
2022/03/30 09:43:13;;;;;;;3.10;0.80;;;7.50;99.90;;;;;;5064404;28;20165;-67
2022/03/30 09:45:39;;;;;;;5.28;1.10;;;7.40;99.90;;;;;;5066003;28;20052;-67
2022/03/30 09:48:32;;;;;;;4.47;1.05;;;7.30;99.90;;;;;;5069831;28;20480;-67
2022/03/30 09:50:59;;;;;;;5.38;1.10;;;7.10;99.90;;;;;;5065125;28;20049;-67
2022/03/30 09:53:30;;;;;;;3.65;0.80;;;7.00;99.90;;;;;;5069334;28;20907;-67
2022/03/30 09:56:08;;;;;;;1.85;0.73;;;6.90;99.90;;;;;;5068101;28;20044;-66
2022/03/30 09:58:36;;;;;;;2.97;0.70;;;6.80;99.90;;;;;;5069210;28;20045;-67
2022/03/30 10:01:20;;;;;;;7.82;1.15;;;6.80;99.90;;;;;;5070000;28;20036;-66
2022/03/30 10:03:59;;;;;;;6.95;0.98;;;6.80;99.90;;;;;;5068409;28;20367;-66
2022/03/30 10:06:31;;;;;;;7.88;1.55;;;6.80;99.90;;;;;;5069178;28;20555;-67
2022/03/30 10:08:57;;;;;;;3.95;0.90;;;6.80;99.90;;;;;;5072753;28;20051;-67
2022/03/30 10:11:27;;;;;;;3.83;0.70;;;6.70;99.90;;;;;;5087274;28;20040;-66
2022/03/30 10:13:58;;;;;;;;;;;6.70;99.90;;;;;;5087526;28;20058;-68
2022/03/30 10:16:24;;;;;;;6.50;1.13;;;6.70;99.90;;;;;;5087746;28;19935;-67
2022/03/30 10:18:51;;;;;;;5.20;1.30;;;6.90;99.90;;;;;;5089408;28;20032;-67
2022/03/30 10:21:39;;;;;;;9.05;0.98;;;7.10;99.90;;;;;;5086468;28;20486;-67
2022/03/30 10:24:39;;;;;;;5.00;0.85;;;7.40;99.90;;;;;;5083282;28;20097;-67
2022/03/30 10:27:19;;;;;;;7.63;0.63;;;7.90;99.90;;;;;;5070878;28;20487;-67
2022/03/30 10:29:56;;;;;;;5.95;0.55;;;8.00;99.90;;;;;;5087932;28;20060;-66
2022/03/30 10:32:27;;;;;;;6.55;0.90;;;7.90;99.80;;;;;;5085947;28;20370;-66
2022/03/30 10:35:13;;;;;;;5.93;1.25;;;7.70;99.90;;;;;;5082284;28;20079;-66
2022/03/30 10:37:57;;;;;;;2.92;0.90;;;7.30;97.80;;;;;;5087843;28;20048;-67
2022/03/30 10:40:25;;;;;;;5.90;1.00;;;7.10;99.90;;;;;;5088440;28;20054;-67
2022/03/30 10:42:57;;;;;;;4.40;0.82;;;7.20;99.90;;;;;;5086578;28;20089;-66
2022/03/30 10:45:28;;;;;;;8.82;0.80;;;7.50;99.90;;;;;;5067631;28;20107;-67
2022/03/30 10:48:09;;;;;;;7.22;1.02;;;7.90;99.90;;;;;;5046493;28;20057;-66
2022/03/30 10:50:42;;;;;;;6.72;1.00;;;8.30;98.20;;;;;;5048045;28;20423;-67
2022/03/30 10:53:34;;;;;;;3.20;0.55;;;8.40;96.30;;;;;;5051154;28;20049;-67
2022/03/30 10:56:09;;;;;;;7.80;1.08;;;8.40;98.80;;;;;;5077557;28;20138;-67
2022/03/30 10:59:00;;;;;;;4.78;0.80;;;8.40;99.10;;;;;;5086860;28;20040;-66
2022/03/30 11:01:31;;;;;;;3.10;0.85;;;8.10;96.90;;;;;;5082572;28;20056;-67
2022/03/30 11:03:58;;;;;;;3.40;0.60;;;7.70;98.10;;;;;;5087377;28;20489;-67
2022/03/30 11:06:25;;;;;;;4.05;0.98;;;7.40;94.80;;;;;;5083013;28;20051;-67
2022/03/30 11:08:51;;;;;;;4.32;0.85;;;7.30;95.20;;;;;;5086797;28;20039;-67
2022/03/30 11:11:42;;;;;;;5.25;0.88;;;7.30;97.30;;;;;;5078001;28;20044;-67
2022/03/30 11:14:31;;;;;;;3.78;0.68;;;7.30;92.40;;;;;;5079684;28;20113;-66
2022/03/30 11:16:59;;;;;;;8.98;0.88;;;7.60;92.50;;;;;;5081111;28;20502;-67
2022/03/30 11:19:29;;;;;;;5.20;0.93;;;7.70;95.90;;;;;;5087021;28;20043;-67
2022/03/30 11:22:12;;;;;;;3.45;1.15;;;7.80;94.10;;;;;;5086668;28;20036;-67
2022/03/30 11:25:10;;;;;;;3.72;0.60;;;7.60;94.80;;;;;;5082942;28;20089;-67
2022/03/30 11:27:36;;;;;;;3.80;0.75;;;7.40;99.10;;;;;;5080019;28;20050;-67
2022/03/30 11:30:16;;;;;;;3.50;0.82;;;7.30;97.60;;;;;;5086106;28;20040;-67
2022/03/30 11:32:52;;;;;;;1.77;0.70;;;7.20;98.10;;;;;;5082238;28;20044;-67
2022/03/30 11:35:28;;;;;;;3.10;0.70;;;7.20;99.00;;;;;;5085505;28;20072;-67
2022/03/30 11:38:02;;;;;;;1.65;0.70;;;7.20;96.90;;;;;;5078895;28;20125;-67
2022/03/30 11:40:28;;;;;;;5.82;0.80;;;7.20;93.80;;;;;;5084816;28;20521;-66
2022/03/30 11:42:56;;;;;;;4.68;1.33;;;7.20;99.40;;;;;;5085342;28;20078;-67
2022/03/30 11:45:26;;;;;;;3.90;0.70;;;7.30;99.40;;;;;;5087879;28;20100;-66
2022/03/30 11:48:01;;;;;;;2.90;0.97;;;7.30;99.80;;;;;;5079634;28;20059;-66
2022/03/30 11:50:33;;;;;;;4.22;0.98;;;7.30;99.90;;;;;;5084088;28;20494;-66
2022/03/30 11:53:09;;;;;;;4.82;1.20;;;7.20;99.90;;;;;;5085625;28;20505;-67
2022/03/30 11:55:50;;;;;;;5.85;1.15;;;7.20;99.90;;;;;;5085967;28;20101;-66
2022/03/30 11:58:28;;;;;;;3.72;0.80;;;7.20;99.90;;;;;;5080694;28;20394;-67
2022/03/30 12:00:56;;;;;;;3.45;0.80;;;7.20;99.90;;;;;;5060737;28;20044;-66
2022/03/30 12:03:23;;;;;;;3.63;1.02;;;7.20;99.90;;;;;;5074918;28;20461;-67
2022/03/30 12:05:54;;;;;;;7.63;1.00;;;7.20;99.40;;;;;;5086011;28;20043;-66
2022/03/30 12:08:20;;;;;;;5.45;0.85;;;7.30;97.90;;;;;;5083742;28;20101;-66
2022/03/30 12:10:48;;;;;;;8.27;1.27;;;7.20;96.00;;;;;;5086835;28;20040;-66
2022/03/30 12:13:21;;;;;;;4.10;0.70;;;7.20;94.70;;;;;;5082603;28;20459;-66
2022/03/30 12:15:47;;;;;;;6.30;0.90;;;7.20;95.40;;;;;;5066687;28;20438;-67
2022/03/30 12:18:12;;;;;;;3.75;0.77;;;7.30;97.80;;;;;;5065816;28;20410;-66
2022/03/30 12:20:38;;;;;;;3.13;0.70;;;7.30;98.80;;;;;;5066576;28;20047;-66
2022/03/30 12:23:07;;;;;;;3.22;0.80;;;7.40;96.40;;;;;;5066215;28;20128;-66
2022/03/30 12:25:36;;;;;;;2.95;0.88;;;7.40;96.70;;;;;;5065749;28;20052;-67
2022/03/30 12:28:03;;;;;;;4.67;0.80;;;7.40;99.90;;;;;;5086420;28;20032;-66
2022/03/30 12:30:35;;;;;;;1.60;0.73;;;7.30;95.80;;;;;;5085144;28;20120;-67
2022/03/30 12:33:01;;;;;;;7.05;1.25;;;7.40;99.90;;;;;;5079188;28;20040;-67
2022/03/30 12:35:33;;;;;;;2.08;0.50;;;7.50;97.90;;;;;;5085740;28;20333;-66
2022/03/30 12:38:11;;;;;;;3.80;0.73;;;7.30;95.20;;;;;;5086732;28;20036;-66
2022/03/30 12:40:40;;;;;;;5.00;0.90;;;7.30;96.30;;;;;;5085721;28;20047;-66
2022/03/30 12:43:07;;;;;;;2.33;0.70;;;7.40;98.30;;;;;;5081285;28;20039;-67
2022/03/30 12:45:44;;;;;;;3.55;0.95;;;7.40;99.90;;;;;;5076016;28;20452;-66
2022/03/30 12:48:10;;;;;;;7.13;1.10;;;7.40;96.30;;;;;;5084780;28;20048;-66
2022/03/30 12:50:37;;;;;;;5.60;1.08;;;7.40;97.60;;;;;;5084487;28;20044;-66
2022/03/30 12:53:15;;;;;;;8.15;1.15;;;7.40;97.80;;;;;;5085391;28;20104;-65
2022/03/30 12:55:49;;;;;;;3.63;0.65;;;7.40;96.90;;;;;;5078804;28;20048;-65
2022/03/30 12:58:22;;;;;;;2.42;0.70;;;7.30;95.20;;;;;;5086308;28;20501;-65
2022/03/30 13:00:53;;;;;;;4.93;0.82;;;7.30;98.70;;;;;;5084645;28;20131;-65
2022/03/30 13:03:33;;;;;;;4.78;0.60;;;7.60;97.30;;;;;;5066400;28;20094;-65
2022/03/30 13:06:07;;;;;;;3.70;1.00;;;8.00;97.00;;;;;;5081002;28;20057;-65
2022/03/30 13:08:34;;;;;;;2.72;0.70;;;8.30;98.30;;;;;;5077913;28;20246;-65
2022/03/30 13:11:02;;;;;;;3.17;0.95;;;8.50;91.50;;;;;;5046293;28;20130;-65
2022/03/30 13:13:37;;;;;;;6.13;1.15;;;8.40;91.00;;;;;;5044344;28;20036;-65